Time;durP1;ratioP1;P1;durP2;ratioP2;P2;SDS_P1;SDS_P2;PMS_P1;PMS_P2;Temp;Humidity;BMP_temperature;BMP_pressure;BME280_temperature;BME280_humidity;BME280_pressure;Samples;Min_cycle;Max_cycle;Signal;HPM_P1;HPM_P2
2023/02/12 00:02:22;;;;;;;32.72;10.98;;;7.00;99.90;;;;;;5089708;28;20043;-72
2023/02/12 00:04:48;;;;;;;27.10;10.73;;;6.90;99.90;;;;;;5089807;28;20042;-72
2023/02/12 00:07:13;;;;;;;29.88;11.88;;;6.90;99.90;;;;;;5089749;28;20040;-72
2023/02/12 00:09:39;;;;;;;26.27;10.75;;;6.90;99.90;;;;;;5090887;28;20133;-72
2023/02/12 00:12:05;;;;;;;35.80;12.07;;;6.90;99.90;;;;;;5090653;28;20039;-72
2023/02/12 00:14:30;;;;;;;34.03;11.43;;;7.00;99.90;;;;;;5090859;28;20116;-71
2023/02/12 00:16:56;;;;;;;31.85;11.73;;;7.00;99.90;;;;;;5089608;28;20047;-71
2023/02/12 00:19:22;;;;;;;34.38;11.85;;;6.80;99.90;;;;;;5090986;28;20028;-71
2023/02/12 00:21:48;;;;;;;30.92;11.07;;;6.90;99.90;;;;;;5089722;28;20089;-72
2023/02/12 00:24:13;;;;;;;33.40;14.00;;;6.80;99.90;;;;;;5089307;28;20044;-72
2023/02/12 00:26:39;;;;;;;29.77;12.48;;;6.80;99.90;;;;;;5089620;28;20169;-72
2023/02/12 00:29:05;;;;;;;25.80;11.63;;;6.90;99.90;;;;;;5089711;28;20043;-71
2023/02/12 00:31:31;;;;;;;33.75;12.23;;;6.80;99.90;;;;;;5090897;28;20050;-71
2023/02/12 00:33:58;;;;;;;38.00;13.18;;;6.90;99.90;;;;;;5089180;28;20119;-72
2023/02/12 00:36:27;;;;;;;30.45;12.52;;;6.80;99.90;;;;;;5090911;28;20117;-72
2023/02/12 00:38:53;;;;;;;34.72;13.88;;;6.80;99.90;;;;;;5090763;28;20120;-72
2023/02/12 00:41:20;;;;;;;33.35;12.25;;;6.80;99.90;;;;;;5089316;28;20089;-71
2023/02/12 00:43:46;;;;;;;31.70;12.48;;;6.80;99.90;;;;;;5088743;28;20040;-72
2023/02/12 00:46:11;;;;;;;30.30;12.85;;;6.90;99.90;;;;;;5090400;28;20043;-72
2023/02/12 00:48:37;;;;;;;32.00;13.02;;;6.80;99.90;;;;;;5089343;28;20115;-72
2023/02/12 00:53:31;;;;;;;42.47;13.30;;;6.90;99.90;;;;;;5048126;28;20041;-74
2023/02/12 00:55:57;;;;;;;40.20;12.88;;;6.90;99.90;;;;;;5049899;28;20041;-74
2023/02/12 00:58:23;;;;;;;29.10;12.05;;;6.90;99.90;;;;;;5051102;28;20132;-74
2023/02/12 01:00:49;;;;;;;38.15;13.77;;;7.00;99.90;;;;;;5052728;28;20132;-74
2023/02/12 01:03:15;;;;;;;34.95;13.35;;;6.90;99.90;;;;;;5054564;28;20542;-74
2023/02/12 01:05:41;;;;;;;29.40;13.10;;;7.00;99.90;;;;;;5053415;28;20044;-74
2023/02/12 01:08:06;;;;;;;39.47;12.48;;;6.90;99.90;;;;;;5054929;28;20221;-74
2023/02/12 01:10:32;;;;;;;36.97;12.25;;;6.80;99.90;;;;;;5054887;28;20120;-74
2023/02/12 01:12:58;;;;;;;29.48;12.38;;;7.00;99.90;;;;;;5054125;28;20079;-74
2023/02/12 01:15:23;;;;;;;36.30;13.23;;;6.90;99.90;;;;;;5053409;28;20041;-74
2023/02/12 01:17:52;;;;;;;33.33;12.40;;;6.90;99.90;;;;;;5054519;28;20058;-74
2023/02/12 01:20:21;;;;;;;39.03;13.38;;;6.90;99.90;;;;;;5054433;28;20056;-74
2023/02/12 01:22:47;;;;;;;33.03;11.77;;;6.90;99.90;;;;;;5054230;28;20585;-74
2023/02/12 01:25:13;;;;;;;40.60;13.52;;;7.00;99.90;;;;;;5053189;28;20079;-74
2023/02/12 01:27:39;;;;;;;35.92;13.85;;;6.90;99.90;;;;;;5053338;28;20045;-74
2023/02/12 01:30:08;;;;;;;32.17;11.95;;;6.90;99.90;;;;;;5054339;28;20048;-74
2023/02/12 01:32:34;;;;;;;34.92;13.18;;;6.90;99.90;;;;;;5053824;28;20045;-74
2023/02/12 01:34:59;;;;;;;29.15;12.98;;;6.90;99.90;;;;;;5052888;28;20036;-74
2023/02/12 01:37:25;;;;;;;32.20;12.85;;;7.00;99.90;;;;;;5054202;28;20127;-74
2023/02/12 01:39:50;;;;;;;31.80;13.82;;;6.90;99.90;;;;;;5054310;28;20033;-74
2023/02/12 01:42:17;;;;;;;27.20;12.10;;;6.90;99.90;;;;;;5053870;28;20044;-74
2023/02/12 01:45:11;;;;;;;35.95;14.20;;;6.90;99.90;;;;;;5052760;28;20041;-74
2023/02/12 01:47:37;;;;;;;36.90;13.50;;;6.90;99.90;;;;;;5053921;28;20043;-74
2023/02/12 01:50:03;;;;;;;33.35;13.95;;;6.80;99.90;;;;;;5054159;28;20037;-74
2023/02/12 01:52:33;;;;;;;37.03;13.55;;;6.90;99.90;;;;;;5052062;28;20102;-74
2023/02/12 01:55:02;;;;;;;33.22;11.73;;;6.90;99.90;;;;;;5053916;28;20111;-74
2023/02/12 01:57:30;;;;;;;30.92;13.10;;;7.00;99.90;;;;;;5053792;28;20051;-74
2023/02/12 01:59:59;;;;;;;28.30;13.60;;;6.90;99.90;;;;;;5053720;28;20123;-74
2023/02/12 02:02:25;;;;;;;33.58;12.35;;;6.90;99.90;;;;;;5053557;28;20037;-74
2023/02/12 02:04:56;;;;;;;30.92;12.43;;;6.90;99.90;;;;;;5053791;28;20043;-74
2023/02/12 02:07:22;;;;;;;31.95;13.35;;;7.00;99.90;;;;;;5053814;28;20440;-74
2023/02/12 02:09:48;;;;;;;33.25;13.07;;;7.00;99.90;;;;;;5053474;28;20040;-74
2023/02/12 02:15:00;;;;;;;29.23;12.45;;;6.90;99.90;;;;;;5053736;28;20045;-74
2023/02/12 02:17:45;;;;;;;38.35;13.15;;;6.90;99.90;;;;;;5053565;28;20049;-74
2023/02/12 02:20:48;;;;;;;27.63;13.50;;;7.00;99.90;;;;;;5053488;28;20029;-74
2023/02/12 02:23:33;;;;;;;27.67;12.20;;;6.90;99.90;;;;;;5052009;28;20116;-74
2023/02/12 02:26:08;;;;;;;26.58;12.18;;;6.90;99.90;;;;;;5053459;28;20053;-74
2023/02/12 02:28:54;;;;;;;31.17;13.18;;;6.90;99.90;;;;;;5051939;28;20075;-74
2023/02/12 02:31:32;;;;;;;27.98;12.65;;;6.90;99.90;;;;;;5051799;28;20047;-74
2023/02/12 02:34:19;;;;;;;31.08;14.38;;;6.90;99.90;;;;;;5052995;28;20045;-74
2023/02/12 02:37:16;;;;;;;27.38;15.50;;;6.80;99.90;;;;;;5053202;28;20037;-74
2023/02/12 02:39:56;;;;;;;36.15;14.98;;;6.80;99.90;;;;;;5052912;28;20617;-74
2023/02/12 02:42:47;;;;;;;27.85;12.63;;;6.80;99.90;;;;;;5051328;28;20526;-74
2023/02/12 02:45:18;;;;;;;30.88;13.05;;;6.80;99.90;;;;;;5053041;28;20118;-74
2023/02/12 02:47:48;;;;;;;33.00;13.48;;;6.80;99.90;;;;;;5052996;28;20052;-74
2023/02/12 02:50:23;;;;;;;33.45;14.40;;;6.90;99.90;;;;;;5053123;28;20459;-74
2023/02/12 02:52:53;;;;;;;34.75;13.85;;;6.70;99.90;;;;;;5052333;28;20048;-74
2023/02/12 02:55:22;;;;;;;38.28;15.68;;;6.80;99.90;;;;;;5052874;28;20052;-74
2023/02/12 02:58:12;;;;;;;41.90;16.00;;;6.80;99.90;;;;;;5052646;28;20492;-74
2023/02/12 03:00:58;;;;;;;41.97;15.80;;;6.70;99.90;;;;;;5050868;28;20103;-74
2023/02/12 03:03:38;;;;;;;37.10;14.27;;;6.70;99.90;;;;;;5051187;28;20504;-74
2023/02/12 03:06:11;;;;;;;46.47;19.77;;;6.70;99.90;;;;;;5052670;28;20408;-74
2023/02/12 03:08:39;;;;;;;;;;;6.70;99.90;;;;;;5052927;28;20045;-74
2023/02/12 03:11:20;;;;;;;38.83;17.73;;;6.60;99.90;;;;;;5052478;28;19932;-74
2023/02/12 03:13:50;;;;;;;38.85;18.25;;;6.60;99.90;;;;;;5052229;28;20404;-74
2023/02/12 03:16:24;;;;;;;36.42;16.85;;;6.60;99.90;;;;;;5052500;28;20071;-74
2023/02/12 03:19:02;;;;;;;38.45;17.52;;;6.50;99.90;;;;;;5052285;28;20041;-74
2023/02/12 03:21:34;;;;;;;44.13;18.05;;;6.50;99.90;;;;;;5051885;28;20112;-74
2023/02/12 03:24:25;;;;;;;43.90;19.63;;;6.50;99.90;;;;;;5051918;28;20448;-74
2023/02/12 03:26:58;;;;;;;42.35;19.98;;;6.50;99.90;;;;;;5052180;28;20044;-74
2023/02/12 03:29:25;;;;;;;38.92;17.13;;;6.50;99.90;;;;;;5052113;28;20041;-74
2023/02/12 03:32:01;;;;;;;42.38;19.45;;;6.50;99.90;;;;;;5051802;28;20496;-74
2023/02/12 03:34:52;;;;;;;49.13;19.83;;;6.50;99.90;;;;;;5052057;28;20037;-74
2023/02/12 03:37:25;;;;;;;44.03;19.52;;;6.60;99.90;;;;;;5052020;28;20110;-74
2023/02/12 03:40:03;;;;;;;;;;;6.50;99.90;;;;;;5051425;28;20045;-74
2023/02/12 03:42:43;;;;;;;45.17;18.88;;;6.50;99.90;;;;;;5051604;28;19916;-74
2023/02/12 03:45:20;;;;;;;55.95;21.45;;;6.40;99.90;;;;;;5051936;28;20522;-74
2023/02/12 03:47:54;;;;;;;55.85;20.58;;;6.60;99.90;;;;;;5051970;28;20075;-74
2023/02/12 03:50:31;;;;;;;54.85;21.15;;;6.50;99.90;;;;;;5050819;28;20048;-74
2023/02/12 03:52:56;;;;;;;53.13;21.63;;;6.50;99.90;;;;;;5050110;28;20049;-74
2023/02/12 03:55:22;;;;;;;53.45;21.45;;;6.50;99.90;;;;;;5050389;28;20508;-74
2023/02/12 03:57:54;;;;;;;51.10;21.33;;;6.50;99.90;;;;;;5050574;28;20118;-74
2023/02/12 04:00:23;;;;;;;55.45;21.05;;;6.60;99.90;;;;;;5051746;28;20052;-74
2023/02/12 04:02:49;;;;;;;63.78;22.15;;;6.50;99.90;;;;;;5050228;28;20051;-74
2023/02/12 04:05:18;;;;;;;59.15;22.13;;;6.60;99.90;;;;;;5051869;28;20408;-74
2023/02/12 04:07:44;;;;;;;54.20;21.67;;;6.50;99.90;;;;;;5051590;28;20120;-74
2023/02/12 04:10:10;;;;;;;62.88;22.88;;;6.60;99.90;;;;;;5051492;28;20116;-74
2023/02/12 04:12:42;;;;;;;56.53;21.40;;;6.50;99.90;;;;;;5051168;28;20471;-74
2023/02/12 04:15:34;;;;;;;59.65;20.90;;;6.50;99.90;;;;;;5050226;28;20052;-74
2023/02/12 04:18:21;;;;;;;53.92;21.92;;;6.60;99.90;;;;;;5051364;28;20040;-74
2023/02/12 04:21:09;;;;;;;52.97;20.05;;;6.50;99.90;;;;;;5050210;28;20124;-74
2023/02/12 04:23:53;;;;;;;54.92;20.38;;;6.60;99.90;;;;;;5033260;28;20051;-74
2023/02/12 04:26:34;;;;;;;53.80;21.17;;;6.60;99.90;;;;;;5051513;28;20037;-74
2023/02/12 04:29:37;;;;;;;66.60;22.63;;;6.60;99.90;;;;;;5050187;28;20052;-74
2023/02/12 04:32:05;;;;;;;55.35;20.40;;;6.60;99.90;;;;;;5032071;28;20099;-74
2023/02/12 04:34:36;;;;;;;55.78;20.83;;;6.60;99.90;;;;;;5034498;28;20048;-74
2023/02/12 04:37:08;;;;;;;59.35;22.35;;;6.60;99.90;;;;;;5047821;28;20435;-74
2023/02/12 04:39:37;;;;;;;54.03;21.17;;;6.70;99.90;;;;;;5055036;28;20633;-74
2023/02/12 04:42:03;;;;;;;70.15;22.33;;;6.60;99.90;;;;;;5046143;28;20037;-74
2023/02/12 04:44:33;;;;;;;63.45;20.73;;;6.60;99.90;;;;;;5054981;28;20515;-74
2023/02/12 04:46:59;;;;;;;60.25;20.38;;;6.70;99.90;;;;;;5055157;28;20403;-74
2023/02/12 04:49:26;;;;;;;57.83;19.83;;;6.60;99.90;;;;;;5055300;28;20412;-74
2023/02/12 04:51:52;;;;;;;59.92;21.55;;;6.70;99.90;;;;;;5053665;28;20044;-74
2023/02/12 04:54:19;;;;;;;44.30;18.95;;;6.70;99.90;;;;;;5054801;28;20419;-74
2023/02/12 04:56:45;;;;;;;42.85;17.77;;;6.70;99.90;;;;;;5053740;28;20107;-74
2023/02/12 04:59:12;;;;;;;39.55;17.58;;;6.70;99.90;;;;;;5053586;28;20060;-74
2023/02/12 05:01:38;;;;;;;50.20;16.85;;;6.70;99.90;;;;;;5053515;28;20048;-74
2023/02/12 05:04:05;;;;;;;41.13;14.70;;;6.80;99.90;;;;;;5036993;28;20103;-74
2023/02/12 05:06:34;;;;;;;33.33;14.93;;;6.60;99.90;;;;;;5053529;28;20041;-74
2023/02/12 05:09:00;;;;;;;29.98;14.00;;;6.60;99.90;;;;;;5053598;28;20047;-74
2023/02/12 05:11:26;;;;;;;32.40;15.93;;;6.60;99.90;;;;;;5053391;28;20119;-74
2023/02/12 05:13:52;;;;;;;30.65;15.38;;;6.60;99.90;;;;;;5052893;28;20456;-74
2023/02/12 05:16:20;;;;;;;27.85;13.10;;;6.60;99.90;;;;;;5054764;28;20099;-74
2023/02/12 05:18:46;;;;;;;30.27;15.10;;;6.50;99.90;;;;;;5036915;28;20521;-74
2023/02/12 05:21:12;;;;;;;27.17;13.68;;;6.50;99.90;;;;;;5054532;28;20116;-74
2023/02/12 05:23:39;;;;;;;25.00;13.60;;;6.50;99.90;;;;;;5052854;28;20120;-74
2023/02/12 05:26:07;;;;;;;30.90;13.27;;;6.50;99.90;;;;;;5053167;28;20041;-74
2023/02/12 05:28:33;;;;;;;26.90;13.98;;;6.50;99.90;;;;;;5049364;28;20048;-74
2023/02/12 05:31:03;;;;;;;29.38;14.13;;;6.50;99.90;;;;;;5053243;28;20033;-74
2023/02/12 05:33:29;;;;;;;30.50;14.32;;;6.50;99.90;;;;;;5054109;28;20037;-74
2023/02/12 05:35:55;;;;;;;28.95;13.38;;;6.50;99.90;;;;;;5054384;28;20049;-74
2023/02/12 05:38:21;;;;;;;27.10;13.50;;;6.40;99.90;;;;;;5054137;28;20033;-74
2023/02/12 05:40:46;;;;;;;25.38;13.07;;;6.50;99.90;;;;;;5054088;28;20032;-74
2023/02/12 05:43:12;;;;;;;28.00;13.65;;;6.50;99.90;;;;;;5053983;28;20113;-74
2023/02/12 05:45:40;;;;;;;28.88;13.55;;;6.40;99.90;;;;;;5052599;28;20047;-74
2023/02/12 05:48:06;;;;;;;23.85;11.85;;;6.50;99.90;;;;;;5052753;28;20052;-74
2023/02/12 05:50:31;;;;;;;25.88;12.20;;;6.40;99.90;;;;;;5052766;28;20110;-74
2023/02/12 05:52:59;;;;;;;25.90;12.75;;;6.30;99.90;;;;;;5052021;28;20175;-74
2023/02/12 05:55:25;;;;;;;21.35;11.68;;;6.30;99.90;;;;;;5035908;28;20045;-74
2023/02/12 05:57:50;;;;;;;25.38;10.90;;;6.40;99.90;;;;;;5052554;28;20128;-74
2023/02/12 06:00:16;;;;;;;25.05;11.27;;;6.40;99.90;;;;;;5053917;28;20040;-74
2023/02/12 06:02:42;;;;;;;23.98;12.02;;;6.40;99.90;;;;;;5052148;28;20044;-74
2023/02/12 06:05:07;;;;;;;21.90;11.52;;;6.40;99.90;;;;;;5052710;28;20045;-74
2023/02/12 06:07:33;;;;;;;19.42;10.90;;;6.30;99.90;;;;;;5052359;28;20036;-74
2023/02/12 06:09:58;;;;;;;20.33;10.88;;;6.40;99.90;;;;;;5052528;28;20053;-74
2023/02/12 06:12:24;;;;;;;26.50;10.52;;;6.30;99.90;;;;;;5053361;28;20103;-74
2023/02/12 06:14:50;;;;;;;20.48;11.60;;;6.30;99.90;;;;;;5052300;28;20049;-74
2023/02/12 06:17:15;;;;;;;30.52;12.75;;;6.30;99.90;;;;;;5053653;28;20047;-74
2023/02/12 06:19:41;;;;;;;22.42;11.13;;;6.30;99.90;;;;;;5052194;28;20036;-74
2023/02/12 06:22:06;;;;;;;25.95;11.60;;;6.30;99.90;;;;;;5051765;28;20123;-74
2023/02/12 06:24:32;;;;;;;21.90;11.45;;;6.20;99.90;;;;;;5053276;28;20116;-74
2023/02/12 06:26:57;;;;;;;33.83;12.77;;;6.20;99.90;;;;;;5053690;28;20616;-74
2023/02/12 06:29:23;;;;;;;27.38;12.30;;;6.20;99.90;;;;;;5053465;28;20425;-74
2023/02/12 06:31:49;;;;;;;25.05;13.32;;;6.20;99.90;;;;;;5053251;28;20068;-74
2023/02/12 06:34:17;;;;;;;17.52;10.35;;;6.20;99.90;;;;;;5053011;28;20512;-74
2023/02/12 06:36:44;;;;;;;20.83;11.35;;;6.20;99.90;;;;;;5053120;28;20516;-74
2023/02/12 06:39:12;;;;;;;19.92;10.52;;;6.20;99.90;;;;;;5051789;28;20037;-74
2023/02/12 06:41:37;;;;;;;18.63;10.07;;;6.20;99.90;;;;;;5051973;28;20125;-74
2023/02/12 06:44:04;;;;;;;22.00;11.52;;;6.10;99.90;;;;;;5052751;28;20120;-74
2023/02/12 06:46:30;;;;;;;19.38;10.70;;;6.20;99.90;;;;;;5052940;28;20037;-74
2023/02/12 06:48:57;;;;;;;26.92;12.80;;;6.20;99.90;;;;;;5052980;28;20044;-74
2023/02/12 06:51:24;;;;;;;20.98;12.02;;;6.20;99.90;;;;;;5051474;28;20996;-75
2023/02/12 06:53:51;;;;;;;21.02;11.35;;;6.10;99.90;;;;;;5052417;28;20125;-74
2023/02/12 06:56:18;;;;;;;17.83;11.05;;;6.20;99.90;;;;;;5052522;28;20075;-74
2023/02/12 06:58:45;;;;;;;22.40;10.90;;;6.20;99.90;;;;;;5052270;28;20120;-74
2023/02/12 07:01:17;;;;;;;20.23;11.18;;;6.20;99.90;;;;;;5052579;28;20036;-74
2023/02/12 07:03:46;;;;;;;20.67;11.18;;;6.20;99.90;;;;;;5052245;28;20608;-73
2023/02/12 07:06:12;;;;;;;23.10;12.25;;;6.20;99.90;;;;;;5051034;28;20496;-75
2023/02/12 07:08:38;;;;;;;23.98;12.52;;;6.20;99.90;;;;;;5052621;28;20037;-74
2023/02/12 07:11:04;;;;;;;28.90;14.00;;;6.30;99.90;;;;;;5052471;28;20523;-74
2023/02/12 07:13:29;;;;;;;29.60;13.98;;;6.20;99.90;;;;;;5052079;28;20037;-74
2023/02/12 07:15:55;;;;;;;27.13;13.20;;;6.20;99.90;;;;;;5052309;28;20496;-73
2023/02/12 07:18:20;;;;;;;26.75;13.70;;;6.20;99.90;;;;;;5052270;28;20079;-73
2023/02/12 07:20:46;;;;;;;32.58;15.35;;;6.20;99.90;;;;;;5052069;28;20040;-74
2023/02/12 07:23:12;;;;;;;28.35;14.35;;;6.20;99.90;;;;;;5052002;28;20469;-74
2023/02/12 07:25:38;;;;;;;31.17;15.80;;;6.20;99.90;;;;;;5052108;28;20556;-73
2023/02/12 07:28:03;;;;;;;28.10;14.55;;;6.20;99.90;;;;;;5050788;28;20079;-74
2023/02/12 07:30:29;;;;;;;31.35;15.13;;;6.20;99.90;;;;;;5051063;28;20044;-74
2023/02/12 07:32:55;;;;;;;33.33;15.07;;;6.30;99.90;;;;;;5050456;28;20037;-74
2023/02/12 07:35:20;;;;;;;39.53;17.27;;;6.30;99.90;;;;;;5051805;28;20037;-74
2023/02/12 07:37:46;;;;;;;42.58;18.02;;;6.30;99.90;;;;;;5052089;28;20037;-74
2023/02/12 07:40:12;;;;;;;38.80;18.13;;;6.30;99.90;;;;;;5050583;28;20041;-74
2023/02/12 07:42:37;;;;;;;35.97;19.02;;;6.30;99.90;;;;;;5050221;28;20412;-75
2023/02/12 07:45:03;;;;;;;38.78;17.52;;;6.30;99.90;;;;;;5052054;28;20045;-75
2023/02/12 07:47:29;;;;;;;34.88;16.60;;;6.40;99.90;;;;;;5051881;28;20052;-76
2023/02/12 07:49:55;;;;;;;34.85;17.38;;;6.40;99.90;;;;;;5050354;28;20041;-75
2023/02/12 07:52:20;;;;;;;47.50;18.73;;;6.40;99.90;;;;;;5049877;28;20041;-74
2023/02/12 07:54:46;;;;;;;41.72;18.05;;;6.40;99.90;;;;;;5051753;28;20098;-74
2023/02/12 07:57:12;;;;;;;40.95;17.73;;;6.40;99.90;;;;;;5050522;28;20090;-75
2023/02/12 07:59:37;;;;;;;50.17;22.73;;;6.40;99.90;;;;;;5051406;28;20041;-75
2023/02/12 08:02:03;;;;;;;46.25;22.50;;;6.50;99.90;;;;;;5051357;28;20064;-76
2023/02/12 08:04:28;;;;;;;51.10;22.15;;;6.40;99.90;;;;;;5051166;28;20041;-74
2023/02/12 08:06:55;;;;;;;48.13;21.02;;;6.50;99.90;;;;;;5050158;28;20053;-75
2023/02/12 08:09:24;;;;;;;53.65;22.63;;;6.40;99.90;;;;;;5049952;28;20037;-75
2023/02/12 08:11:50;;;;;;;47.42;21.90;;;6.60;99.90;;;;;;5051318;28;20056;-76
2023/02/12 08:14:18;;;;;;;43.92;19.67;;;6.60;99.90;;;;;;5051237;28;20547;-75
2023/02/12 08:16:45;;;;;;;43.35;18.52;;;6.60;99.90;;;;;;5050107;28;20531;-75
2023/02/12 08:19:11;;;;;;;34.20;16.88;;;6.60;99.90;;;;;;5049884;28;20048;-75
2023/02/12 08:21:36;;;;;;;34.58;16.85;;;6.60;99.90;;;;;;5051370;28;20040;-75
2023/02/12 08:24:02;;;;;;;35.08;16.83;;;6.60;99.90;;;;;;5051183;28;20052;-76
2023/02/12 08:26:33;;;;;;;35.38;15.98;;;6.60;99.90;;;;;;5051395;28;20446;-75
2023/02/12 08:29:07;;;;;;;33.95;17.00;;;6.60;99.90;;;;;;5050194;28;20052;-75
2023/02/12 08:31:36;;;;;;;31.42;16.27;;;6.50;99.90;;;;;;5047536;28;20041;-75
2023/02/12 08:34:02;;;;;;;29.85;16.75;;;6.60;99.90;;;;;;5044824;28;20029;-76
2023/02/12 08:36:38;;;;;;;31.27;15.75;;;6.60;99.90;;;;;;5051060;28;20041;-75
2023/02/12 08:39:05;;;;;;;32.33;15.30;;;6.70;99.90;;;;;;5049243;28;20040;-75
2023/02/12 08:41:31;;;;;;;28.85;13.70;;;6.70;99.90;;;;;;5049416;28;20036;-75
2023/02/12 08:44:00;;;;;;;30.42;15.75;;;6.70;99.90;;;;;;5049523;28;20044;-74
2023/02/12 08:46:31;;;;;;;28.50;14.35;;;6.70;99.90;;;;;;5048891;28;20044;-77
2023/02/12 08:49:03;;;;;;;29.92;15.07;;;6.80;99.90;;;;;;5046930;28;20072;-77
2023/02/12 08:51:31;;;;;;;30.23;14.18;;;6.80;99.90;;;;;;5048747;28;20044;-76
2023/02/12 08:53:59;;;;;;;29.55;15.13;;;6.80;99.90;;;;;;5048330;28;20033;-76
2023/02/12 08:56:28;;;;;;;27.63;14.88;;;6.90;99.90;;;;;;5045917;28;20041;-75
2023/02/12 08:58:55;;;;;;;30.52;15.23;;;6.80;99.90;;;;;;5041963;28;20082;-75
2023/02/12 09:01:23;;;;;;;28.23;15.00;;;6.80;99.90;;;;;;5050621;28;20112;-75
2023/02/12 09:03:49;;;;;;;28.08;15.18;;;6.90;99.90;;;;;;5048956;28;20037;-75
2023/02/12 09:06:17;;;;;;;30.33;14.82;;;6.90;99.90;;;;;;5049237;28;20045;-77
2023/02/12 09:08:43;;;;;;;33.83;16.15;;;6.90;99.90;;;;;;5049271;28;20037;-75
2023/02/12 09:11:11;;;;;;;30.80;16.08;;;7.00;99.90;;;;;;5049134;28;20045;-76
2023/02/12 09:13:37;;;;;;;30.23;16.08;;;7.00;99.90;;;;;;5050414;28;20052;-76
2023/02/12 09:16:04;;;;;;;27.65;14.32;;;7.00;99.90;;;;;;5049393;28;20037;-75
2023/02/12 09:18:30;;;;;;;27.98;15.18;;;7.10;99.90;;;;;;5049491;28;20041;-75
2023/02/12 09:21:04;;;;;;;27.48;15.02;;;7.00;99.90;;;;;;5052216;28;20112;-76
2023/02/12 09:23:30;;;;;;;24.25;13.45;;;7.10;99.90;;;;;;5053161;28;20408;-77
2023/02/12 09:25:55;;;;;;;31.35;16.17;;;7.10;99.90;;;;;;5052923;28;20047;-74
2023/02/12 09:28:21;;;;;;;25.40;14.02;;;7.20;99.90;;;;;;5054103;28;20091;-74
2023/02/12 09:30:47;;;;;;;30.33;14.55;;;7.20;99.90;;;;;;5054122;28;20454;-74
2023/02/12 09:33:13;;;;;;;26.42;13.27;;;7.30;99.90;;;;;;5053609;28;20064;-75
2023/02/12 09:35:39;;;;;;;29.98;14.48;;;7.20;99.90;;;;;;5053863;28;20108;-73
2023/02/12 09:38:06;;;;;;;29.88;14.88;;;7.20;99.90;;;;;;5053837;28;20045;-74
2023/02/12 09:40:53;;;;;;;34.22;14.45;;;7.30;99.90;;;;;;5053679;28;20127;-74
2023/02/12 09:43:42;;;;;;;35.47;16.10;;;7.40;99.90;;;;;;5053270;28;20091;-74
2023/02/12 09:46:24;;;;;;;30.52;14.20;;;7.50;99.90;;;;;;5053802;28;20459;-74
2023/02/12 09:49:14;;;;;;;29.20;15.68;;;7.70;99.90;;;;;;5052251;28;20045;-74
2023/02/12 09:51:44;;;;;;;29.75;16.50;;;7.70;99.90;;;;;;5053403;28;20032;-73
2023/02/12 09:54:15;;;;;;;30.95;15.02;;;7.70;99.90;;;;;;5053071;28;20377;-74
2023/02/12 09:56:48;;;;;;;28.92;16.83;;;7.70;99.90;;;;;;5053503;28;20084;-74
2023/02/12 09:59:29;;;;;;;32.03;15.32;;;7.70;99.90;;;;;;5053470;28;20053;-73
2023/02/12 10:01:57;;;;;;;36.72;17.80;;;7.80;99.90;;;;;;5053175;28;20037;-73
2023/02/12 10:04:25;;;;;;;40.33;16.88;;;7.80;99.90;;;;;;5053282;28;20041;-76
2023/02/12 10:07:17;;;;;;;28.50;16.13;;;7.90;99.90;;;;;;5053303;28;20040;-74
2023/02/12 10:09:58;;;;;;;30.02;17.88;;;7.90;99.90;;;;;;5053499;28;20056;-75
2023/02/12 10:12:36;;;;;;;30.92;18.80;;;8.00;99.90;;;;;;5053010;28;20103;-74
2023/02/12 10:15:31;;;;;;;34.67;18.65;;;7.90;99.90;;;;;;5052133;28;20090;-73
2023/02/12 10:18:17;;;;;;;37.63;20.40;;;8.00;99.90;;;;;;5033889;28;20500;-75
2023/02/12 10:20:59;;;;;;;34.58;18.45;;;8.00;99.90;;;;;;5053353;28;20099;-73
2023/02/12 10:23:48;;;;;;;37.03;18.13;;;8.00;99.90;;;;;;5051711;28;20055;-74
2023/02/12 10:26:49;;;;;;;38.17;19.08;;;8.00;99.90;;;;;;5052954;28;20041;-73
2023/02/12 10:29:24;;;;;;;34.42;18.83;;;8.00;99.90;;;;;;5044429;28;20053;-74
2023/02/12 10:31:56;;;;;;;33.40;18.55;;;8.20;99.90;;;;;;5052284;28;20120;-73
2023/02/12 10:34:29;;;;;;;39.17;20.10;;;8.20;99.90;;;;;;5052598;28;20033;-73
2023/02/12 10:37:15;;;;;;;37.47;20.65;;;8.10;99.90;;;;;;5051632;28;20049;-73
2023/02/12 10:39:47;;;;;;;34.45;18.15;;;8.20;99.90;;;;;;5051893;28;20041;-74
2023/02/12 10:42:24;;;;;;;41.83;19.53;;;8.20;99.90;;;;;;5052521;28;20416;-73
2023/02/12 10:44:50;;;;;;;35.15;19.65;;;8.30;99.90;;;;;;5051735;28;20052;-74
2023/02/12 10:47:23;;;;;;;36.20;17.90;;;8.30;99.90;;;;;;5052724;28;20036;-74
2023/02/12 10:49:54;;;;;;;;;;;8.40;99.90;;;;;;5053116;28;20504;-73
2023/02/12 10:52:45;;;;;;;27.13;16.80;;;8.40;99.90;;;;;;5051188;28;19941;-73
2023/02/12 10:55:23;;;;;;;28.52;17.42;;;8.30;99.90;;;;;;5051208;28;20052;-73
2023/02/12 10:57:49;;;;;;;27.25;16.05;;;8.50;99.90;;;;;;5049647;28;20108;-72
2023/02/12 11:00:24;;;;;;;32.05;16.70;;;8.50;99.90;;;;;;5050334;28;20060;-75
2023/02/12 11:03:02;;;;;;;32.88;16.08;;;8.50;99.90;;;;;;5051715;28;20041;-74
2023/02/12 11:05:30;;;;;;;27.35;15.73;;;8.60;99.90;;;;;;5050731;28;20070;-73
2023/02/12 11:07:56;;;;;;;29.80;16.95;;;8.70;99.90;;;;;;5050632;28;20159;-73
2023/02/12 11:10:30;;;;;;;28.13;16.08;;;8.70;99.90;;;;;;5051019;28;20118;-73
2023/02/12 11:12:57;;;;;;;25.55;15.20;;;8.80;99.90;;;;;;5050309;28;20251;-73
2023/02/12 11:15:25;;;;;;;26.42;13.80;;;8.80;99.90;;;;;;5051774;28;20111;-73
2023/02/12 11:17:58;;;;;;;28.42;15.55;;;8.80;99.90;;;;;;5052017;28;20036;-72
2023/02/12 11:20:51;;;;;;;24.83;14.55;;;8.90;99.90;;;;;;5050694;28;20499;-74
2023/02/12 11:23:28;;;;;;;27.77;14.03;;;8.90;99.90;;;;;;5049134;28;20065;-74
2023/02/12 11:26:05;;;;;;;28.05;14.82;;;9.00;99.90;;;;;;5051537;28;20033;-74
2023/02/12 11:28:34;;;;;;;23.65;14.15;;;9.10;99.90;;;;;;5051682;28;20037;-74
2023/02/12 11:31:21;;;;;;;22.35;13.98;;;9.30;99.90;;;;;;5051590;28;20492;-75
2023/02/12 11:34:04;;;;;;;24.17;14.98;;;9.50;99.90;;;;;;5050191;28;20045;-73
2023/02/12 11:36:34;;;;;;;27.52;14.38;;;9.60;99.90;;;;;;5051946;28;20090;-74
2023/02/12 11:39:00;;;;;;;19.85;12.60;;;9.80;99.90;;;;;;5051838;28;20044;-75
2023/02/12 11:41:33;;;;;;;20.77;13.02;;;9.80;99.90;;;;;;5051763;28;20037;-74
2023/02/12 11:44:00;;;;;;;22.23;13.13;;;9.80;99.90;;;;;;5049773;28;20044;-75
2023/02/12 11:46:27;;;;;;;21.08;11.90;;;9.80;99.90;;;;;;5051647;28;20048;-74
2023/02/12 11:48:55;;;;;;;19.60;12.20;;;9.70;99.90;;;;;;5051605;28;20068;-73
2023/02/12 11:51:28;;;;;;;21.13;11.90;;;9.80;99.90;;;;;;5051202;28;20504;-74
2023/02/12 11:53:56;;;;;;;16.53;9.77;;;9.80;99.90;;;;;;5050016;28;20039;-73
2023/02/12 11:56:21;;;;;;;17.55;11.02;;;9.80;99.90;;;;;;5051600;28;20048;-74
2023/02/12 11:58:49;;;;;;;12.70;8.13;;;9.90;99.90;;;;;;5049171;28;20045;-73
2023/02/12 12:01:26;;;;;;;16.33;7.45;;;9.90;99.90;;;;;;5037170;28;20065;-76
2023/02/12 12:04:05;;;;;;;13.38;7.75;;;9.80;99.90;;;;;;5050521;28;20076;-74
2023/02/12 12:06:36;;;;;;;12.10;5.97;;;9.80;99.90;;;;;;5051738;28;20052;-75
2023/02/12 12:09:33;;;;;;;9.32;6.05;;;9.70;99.90;;;;;;5051687;28;20403;-74
2023/02/12 12:12:04;;;;;;;9.75;6.18;;;9.70;99.90;;;;;;5051360;28;20069;-75
2023/02/12 12:19:51;;;;;;;11.20;6.45;;;9.70;99.90;;;;;;5049767;28;20037;-73
2023/02/12 12:20:18;;;;;;;11.02;7.28;;;9.70;99.90;;;;;;5049893;28;20217;-73
2023/02/12 12:23:08;;;;;;;14.15;7.13;;;9.70;99.90;;;;;;5049648;28;20095;-74
2023/02/12 12:25:42;;;;;;;11.77;7.40;;;9.80;99.90;;;;;;5050228;28;20037;-73
2023/02/12 12:28:33;;;;;;;14.00;8.43;;;9.90;99.90;;;;;;5051283;28;20072;-73
2023/02/12 12:31:30;;;;;;;15.27;8.15;;;9.90;99.90;;;;;;5050066;28;20048;-74
2023/02/12 12:33:55;;;;;;;13.40;8.32;;;9.90;99.90;;;;;;5050909;28;20052;-73
2023/02/12 12:36:21;;;;;;;11.95;8.27;;;10.10;99.90;;;;;;5050879;28;20097;-73
2023/02/12 12:39:28;;;;;;;12.75;7.72;;;10.20;99.90;;;;;;5049740;28;20033;-74
2023/02/12 12:42:16;;;;;;;16.05;9.07;;;10.20;99.90;;;;;;5012687;28;20136;-73
2023/02/12 12:45:19;;;;;;;13.65;8.80;;;10.30;99.90;;;;;;5050019;28;20108;-74
2023/02/12 12:47:50;;;;;;;11.75;8.00;;;10.30;99.90;;;;;;5051100;28;20052;-74
2023/02/12 12:50:16;;;;;;;11.88;7.72;;;10.30;99.90;;;;;;5051131;28;20045;-73
2023/02/12 12:53:03;;;;;;;15.02;7.93;;;10.30;99.90;;;;;;5050424;28;20064;-74
2023/02/12 12:55:58;;;;;;;12.52;6.70;;;10.10;99.90;;;;;;5050855;28;20055;-74
2023/02/12 12:58:26;;;;;;;11.95;7.68;;;10.20;99.90;;;;;;5053763;28;20071;-74
2023/02/12 13:01:24;;;;;;;13.52;8.27;;;10.10;99.90;;;;;;5054943;28;20091;-74
2023/02/12 13:04:01;;;;;;;11.95;8.07;;;10.10;99.90;;;;;;5028001;28;20574;-74
2023/02/12 13:06:51;;;;;;;13.32;8.05;;;10.10;99.90;;;;;;5054854;28;20037;-74
2023/02/12 13:09:49;;;;;;;13.13;8.95;;;10.10;99.90;;;;;;5053318;28;20523;-74